Terminal Aerodrome Forecast
Issued by NWS

Home | Current Version | Previous Version | Text Only | Print | Product List | Glossary Off
Versions: 1 2 3 4 5 6 7 8 9 10 11 12 13 14 15 16 17 18 19 20 21

000
FTUS41 KCLE 091120
TAFFDY
TAF
KFDY 091120Z 0912/1012 20012KT P6SM OVC070
     FM091800 23010KT 5SM -SHSN BKN035
      TEMPO 0918/0922 2SM -SN BKN015
     FM092300 28012KT P6SM OVC015
     FM100600 28008KT P6SM OVC030
     FM100900 27010KT P6SM BKN050=

USA.gov is the U.S. government's official web portal to all federal, state and local government web resources and services.